Time;durP1;ratioP1;P1;durP2;ratioP2;P2;SDS_P1;SDS_P2;PMS_P1;PMS_P2;Temp;Humidity;BMP_temperature;BMP_pressure;BME280_temperature;BME280_humidity;BME280_pressure;Samples;Min_cycle;Max_cycle;Signal;HPM_P1;HPM_P2
2023/05/19 00:01:59;;;;;;;13.17;3.70;;;;;;;7.66;98.78;99123.75;4918037;29;20244;-64
2023/05/19 00:04:34;;;;;;;9.43;3.67;;;;;;;7.61;98.52;99127.66;4921619;29;20585;-64
2023/05/19 00:07:01;;;;;;;9.07;3.97;;;;;;;7.58;99.21;99127.88;4908984;28;20244;-64
2023/05/19 00:09:31;;;;;;;7.17;4.00;;;;;;;7.60;100.00;99119.03;4921885;29;20244;-64
2023/05/19 00:12:00;;;;;;;8.10;3.80;;;;;;;7.53;100.00;99121.28;4918397;28;20240;-64
2023/05/19 00:14:31;;;;;;;11.60;3.57;;;;;;;7.58;100.00;99120.94;4921118;29;20229;-64
2023/05/19 00:17:00;;;;;;;8.13;3.60;;;;;;;7.56;100.00;99114.19;4918350;28;20795;-64
2023/05/19 00:19:32;;;;;;;6.57;3.47;;;;;;;7.46;100.00;99122.69;4921343;29;20749;-64
2023/05/19 00:21:59;;;;;;;9.00;3.53;;;;;;;7.43;99.80;99122.13;4918515;28;20237;-64
2023/05/19 00:24:30;;;;;;;8.33;3.50;;;;;;;7.52;100.00;99113.63;4921375;29;20300;-64
2023/05/19 00:26:57;;;;;;;11.63;3.50;;;;;;;7.52;100.00;99121.41;4918146;28;20240;-64
2023/05/19 00:29:28;;;;;;;10.23;4.00;;;;;;;7.45;100.00;99113.25;4919782;29;21120;-64
2023/05/19 00:31:56;;;;;;;7.67;3.87;;;;;;;7.45;100.00;99117.63;4901260;29;20668;-64
2023/05/19 00:34:23;;;;;;;7.13;3.53;;;;;;;7.39;100.00;99121.53;4901846;29;20232;-64
2023/05/19 00:36:51;;;;;;;11.50;4.13;;;;;;;7.35;100.00;99120.13;4893767;29;20228;-64
2023/05/19 00:39:17;;;;;;;9.33;4.27;;;;;;;7.33;100.00;99109.03;4910540;29;20605;-64
2023/05/19 00:41:44;;;;;;;9.37;4.00;;;;;;;7.35;100.00;99109.75;4919655;29;20247;-64
2023/05/19 00:44:11;;;;;;;11.63;4.10;;;;;;;7.38;100.00;99107.72;4899719;29;20229;-64
2023/05/19 00:46:38;;;;;;;5.43;3.30;;;;;;;7.42;100.00;99103.09;4904869;29;20311;-64
2023/05/19 00:49:04;;;;;;;13.43;4.40;;;;;;;7.44;100.00;99103.81;4918444;29;20232;-64
2023/05/19 00:51:31;;;;;;;11.53;4.13;;;;;;;7.45;100.00;99102.03;4924238;29;20268;-64
2023/05/19 00:53:59;;;;;;;9.53;4.70;;;;;;;7.42;100.00;99107.47;4898249;29;20233;-64
2023/05/19 00:56:26;;;;;;;11.97;4.10;;;;;;;7.43;100.00;99107.34;4920624;28;20628;-64
2023/05/19 00:58:54;;;;;;;8.37;3.90;;;;;;;7.43;100.00;99109.13;4900865;29;20316;-63
2023/05/19 01:01:21;;;;;;;10.00;4.03;;;;;;;7.39;100.00;99108.56;4901562;29;20232;-64
2023/05/19 01:03:50;;;;;;;11.27;4.40;;;;;;;7.37;100.00;99100.88;4915608;29;20460;-64
2023/05/19 01:06:17;;;;;;;7.47;3.73;;;;;;;7.47;100.00;99098.38;4920013;29;20723;-65
2023/05/19 01:08:45;;;;;;;8.87;4.17;;;;;;;7.48;100.00;99096.63;4903128;29;20234;-65
2023/05/19 01:11:13;;;;;;;11.40;4.30;;;;;;;7.50;100.00;99099.91;4896799;29;20249;-65
2023/05/19 01:13:40;;;;;;;10.33;4.00;;;;;;;7.47;100.00;99097.56;4920027;29;20299;-65
2023/05/19 01:16:12;;;;;;;10.43;3.53;;;;;;;7.50;100.00;99092.94;4903512;29;20288;-64
2023/05/19 01:19:00;;;;;;;7.23;3.73;;;;;;;7.51;100.00;99094.59;4919839;29;20235;-64
2023/05/19 01:22:05;;;;;;;8.30;3.87;;;;;;;7.48;100.00;99089.63;4906377;29;20236;-64
2023/05/19 01:24:48;;;;;;;8.97;3.80;;;;;;;7.53;100.00;99086.69;4924610;29;20424;-65
2023/05/19 01:27:42;;;;;;;8.10;3.60;;;;;;;7.47;100.00;99081.97;4908317;29;20245;-65
2023/05/19 01:30:26;;;;;;;9.87;4.13;;;;;;;7.57;100.00;99082.06;4907062;29;20251;-65
2023/05/19 01:32:58;;;;;;;9.73;4.03;;;;;;;7.57;100.00;99082.06;4907919;29;20224;-65
2023/05/19 01:35:26;;;;;;;14.03;3.97;;;;;;;7.59;100.00;99090.56;4903287;29;20262;-65
2023/05/19 01:37:56;;;;;;;8.57;3.93;;;;;;;7.56;100.00;99085.63;4924613;29;20227;-65
2023/05/19 01:40:24;;;;;;;9.20;3.60;;;;;;;7.52;100.00;99085.03;4927467;29;20240;-65
2023/05/19 01:42:53;;;;;;;10.27;4.03;;;;;;;7.52;100.00;99085.03;4925596;29;21018;-65
2023/05/19 01:45:20;;;;;;;13.03;4.27;;;;;;;7.57;100.00;99082.06;4927945;29;20248;-65
2023/05/19 01:47:52;;;;;;;8.07;3.77;;;;;;;7.64;100.00;99078.03;4923645;29;20578;-65
2023/05/19 01:50:19;;;;;;;11.40;3.80;;;;;;;7.59;100.00;99081.03;4910296;29;20621;-65
2023/05/19 01:52:46;;;;;;;8.50;3.90;;;;;;;7.59;100.00;99080.19;4923665;29;20290;-65
2023/05/19 01:55:13;;;;;;;11.93;3.90;;;;;;;7.56;100.00;99080.41;4906625;29;20237;-65
2023/05/19 01:57:47;;;;;;;13.73;3.97;;;;;;;7.55;100.00;99074.41;4908669;29;20626;-65
2023/05/19 02:00:19;;;;;;;7.80;3.43;;;;;;;7.50;100.00;99082.53;4908678;29;20763;-65
2023/05/19 02:02:57;;;;;;;9.40;4.27;;;;;;;7.53;100.00;99090.09;4902563;29;20217;-66
2023/05/19 02:05:30;;;;;;;7.03;3.43;;;;;;;7.48;100.00;99083.63;4923150;28;20222;-66
2023/05/19 02:08:05;;;;;;;8.27;3.77;;;;;;;7.46;100.00;99086.31;4924977;29;20230;-66
2023/05/19 02:10:35;;;;;;;11.10;4.00;;;;;;;7.50;100.00;99086.94;4905791;29;20235;-66
2023/05/19 02:13:07;;;;;;;16.60;4.50;;;;;;;7.47;100.00;99087.16;4925071;29;20232;-66
2023/05/19 02:15:40;;;;;;;7.30;3.70;;;;;;;7.48;100.00;99088.81;4911653;29;20273;-66
2023/05/19 02:18:10;;;;;;;9.33;4.27;;;;;;;7.40;100.00;99092.03;4924805;29;20626;-65
2023/05/19 02:20:37;;;;;;;10.10;3.70;;;;;;;7.44;100.00;99098.59;4927139;29;20222;-65
2023/05/19 02:23:04;;;;;;;8.90;3.60;;;;;;;7.44;100.00;99096.00;4923343;29;20911;-65
2023/05/19 02:25:30;;;;;;;12.30;4.33;;;;;;;7.42;100.00;99094.50;4907649;29;20340;-65
2023/05/19 02:27:58;;;;;;;9.40;3.77;;;;;;;7.44;100.00;99087.41;4905580;29;20228;-65
2023/05/19 02:30:24;;;;;;;10.73;3.70;;;;;;;7.39;100.00;99086.00;4918499;29;20236;-65
2023/05/19 02:32:52;;;;;;;9.73;4.03;;;;;;;7.34;100.00;99080.31;4919745;29;20642;-65
2023/05/19 02:35:21;;;;;;;10.23;4.37;;;;;;;7.37;100.00;99076.69;4928036;29;20224;-65
2023/05/19 02:37:47;;;;;;;8.43;3.80;;;;;;;7.40;100.00;99079.03;4902792;29;20244;-65
2023/05/19 02:40:14;;;;;;;12.13;4.03;;;;;;;7.36;100.00;99080.22;4930023;29;21055;-65
2023/05/19 02:42:40;;;;;;;8.90;3.67;;;;;;;7.41;100.00;99080.69;4925199;29;20596;-65
2023/05/19 02:45:08;;;;;;;12.30;4.23;;;;;;;7.36;100.00;99080.22;4929360;28;20236;-65
2023/05/19 02:47:35;;;;;;;12.20;3.93;;;;;;;7.32;100.00;99065.81;4910923;29;20617;-65
2023/05/19 02:50:02;;;;;;;10.90;4.50;;;;;;;7.35;100.00;99079.38;4923282;29;20221;-65
2023/05/19 02:52:31;;;;;;;7.90;3.80;;;;;;;7.38;100.00;99073.13;4924196;29;20309;-65
2023/05/19 02:54:58;;;;;;;13.53;3.57;;;;;;;7.45;100.00;99070.88;4921970;29;20228;-65
2023/05/19 02:57:25;;;;;;;8.77;3.33;;;;;;;7.40;100.00;99071.25;4916477;28;20733;-65
2023/05/19 02:59:52;;;;;;;10.13;3.80;;;;;;;7.46;100.00;99062.94;4905639;29;20224;-65
2023/05/19 03:05:02;;;;;;;6.50;3.50;;;;;;;7.39;100.00;99065.22;5089637;23;20680;-65
2023/05/19 03:07:29;;;;;;;5.50;3.80;;;;;;;7.39;100.00;99061.81;4901372;29;20252;-65
2023/05/19 03:09:57;;;;;;;8.40;4.07;;;;;;;7.36;100.00;99062.84;4898444;29;21851;-65
2023/05/19 03:12:23;;;;;;;10.57;4.00;;;;;;;7.35;100.00;99065.59;4925472;29;20244;-65
2023/05/19 03:14:50;;;;;;;10.20;4.30;;;;;;;7.35;100.00;99063.81;4924901;28;20246;-65
2023/05/19 03:17:17;;;;;;;7.37;4.03;;;;;;;7.32;100.00;99061.44;4928963;29;20241;-65
2023/05/19 03:19:43;;;;;;;10.90;3.80;;;;;;;7.36;100.00;99062.03;4927247;28;20222;-65
2023/05/19 03:22:10;;;;;;;10.90;3.70;;;;;;;7.35;100.00;99078.56;4909016;29;20225;-65
2023/05/19 03:24:37;;;;;;;8.33;4.00;;;;;;;7.43;100.00;99072.75;4911311;29;20296;-65
2023/05/19 03:27:05;;;;;;;7.33;3.50;;;;;;;7.45;100.00;99069.09;4925053;29;20225;-65
2023/05/19 03:29:32;;;;;;;9.17;3.87;;;;;;;7.43;100.00;99070.97;4911682;29;20264;-65
2023/05/19 03:32:00;;;;;;;9.90;4.00;;;;;;;7.43;100.00;99072.75;5122844;23;20225;-65
2023/05/19 03:34:31;;;;;;;9.40;3.50;;;;;;;7.46;100.00;99069.94;4925851;29;20236;-65
2023/05/19 03:36:58;;;;;;;10.47;4.10;;;;;;;7.43;100.00;99076.19;4908430;29;20229;-65
2023/05/19 03:39:50;;;;;;;5.87;3.70;;;;;;;7.46;100.00;99070.75;4925793;29;20244;-65
2023/05/19 03:42:18;;;;;;;9.27;4.13;;;;;;;7.44;100.00;99080.44;4943035;28;20240;-65
2023/05/19 03:44:45;;;;;;;9.03;4.47;;;;;;;7.48;100.00;99081.84;4942908;28;20574;-65
2023/05/19 03:47:12;;;;;;;7.73;3.70;;;;;;;7.47;100.00;99077.59;4911153;29;20594;-65
2023/05/19 03:49:58;;;;;;;6.37;3.93;;;;;;;7.50;100.00;99084.34;4908868;29;20277;-65
2023/05/19 03:52:50;;;;;;;7.80;4.03;;;;;;;7.51;100.00;99079.00;4940145;28;20243;-65
2023/05/19 03:55:39;;;;;;;8.60;4.20;;;;;;;7.53;100.00;99084.91;4928632;29;20304;-65
2023/05/19 03:58:07;;;;;;;8.43;4.07;;;;;;;7.55;100.00;99087.41;4901335;29;20256;-65
2023/05/19 04:00:36;;;;;;;5.13;3.20;;;;;;;7.56;100.00;99094.25;4917715;29;20272;-65
2023/05/19 04:03:03;;;;;;;10.67;4.20;;;;;;;7.63;100.00;99091.97;4924670;29;20630;-65
2023/05/19 04:05:29;;;;;;;8.97;3.77;;;;;;;7.65;100.00;99088.34;4928316;29;20739;-65
2023/05/19 04:07:56;;;;;;;6.97;3.63;;;;;;;7.67;100.00;99086.44;4925616;29;20745;-65
2023/05/19 04:10:23;;;;;;;9.03;3.60;;;;;;;7.73;100.00;99086.91;4912477;29;20236;-65
2023/05/19 04:12:49;;;;;;;8.87;3.83;;;;;;;7.79;100.00;99083.81;4929443;28;20580;-65
2023/05/19 04:15:17;;;;;;;8.63;4.20;;;;;;;7.83;100.00;99090.44;4927779;29;20241;-65
2023/05/19 04:17:44;;;;;;;7.43;4.23;;;;;;;7.88;100.00;99084.84;4942713;29;20238;-65
2023/05/19 04:20:12;;;;;;;8.43;4.20;;;;;;;7.96;100.00;99087.66;4925670;29;20270;-65
2023/05/19 04:22:39;;;;;;;10.73;4.40;;;;;;;8.03;100.00;99094.03;4928272;29;20656;-65
2023/05/19 04:25:06;;;;;;;11.30;4.43;;;;;;;8.13;100.00;99092.34;4939584;29;20228;-65
2023/05/19 04:27:35;;;;;;;8.23;3.90;;;;;;;8.22;100.00;99088.16;4904601;29;20234;-65
2023/05/19 04:30:02;;;;;;;12.80;4.00;;;;;;;8.32;100.00;99087.41;4907796;28;20292;-65
2023/05/19 04:32:32;;;;;;;7.00;4.10;;;;;;;8.37;100.00;99088.72;4910040;29;20237;-65
2023/05/19 04:34:59;;;;;;;9.67;4.10;;;;;;;8.45;100.00;99079.47;4906242;28;20236;-65
2023/05/19 04:37:28;;;;;;;9.63;4.77;;;;;;;8.50;100.00;99079.91;4915875;29;20316;-65
2023/05/19 04:39:55;;;;;;;12.47;5.47;;;;;;;8.58;100.00;99087.91;4910162;28;20237;-65
2023/05/19 04:42:29;;;;;;;12.23;6.13;;;;;;;8.70;100.00;99091.28;4914572;29;20795;-65
2023/05/19 04:44:56;;;;;;;10.93;5.07;;;;;;;8.73;100.00;99091.03;4923365;29;20245;-65
2023/05/19 04:47:26;;;;;;;13.03;4.90;;;;;;;8.80;100.00;99091.34;4942268;28;20326;-65
2023/05/19 04:49:55;;;;;;;8.57;3.60;;;;;;;8.86;100.00;99098.63;4938989;28;20241;-65
2023/05/19 04:52:22;;;;;;;11.73;5.70;;;;;;;8.88;99.05;99096.72;4910145;29;20570;-65
2023/05/19 04:54:50;;;;;;;12.80;4.47;;;;;;;8.95;97.22;99108.28;4924942;28;20584;-65
2023/05/19 04:57:17;;;;;;;8.40;3.53;;;;;;;8.99;95.77;99101.88;4909856;29;20720;-65
2023/05/19 04:59:45;;;;;;;8.33;3.10;;;;;;;9.01;94.30;99099.97;4918170;29;20230;-65
2023/05/19 05:02:12;;;;;;;9.50;3.70;;;;;;;9.05;94.04;99105.72;4940095;28;20666;-65
2023/05/19 05:04:41;;;;;;;10.47;3.97;;;;;;;9.11;93.37;99096.59;4925559;29;20228;-65
2023/05/19 05:07:09;;;;;;;6.27;3.27;;;;;;;9.21;93.64;99099.22;4902437;29;20236;-65
2023/05/19 05:09:37;;;;;;;7.03;3.60;;;;;;;9.25;92.63;99096.25;4941646;28;20236;-65
2023/05/19 05:12:06;;;;;;;8.27;3.67;;;;;;;9.29;92.63;99089.81;4939262;29;20244;-65
2023/05/19 05:14:34;;;;;;;8.53;3.80;;;;;;;9.42;93.65;99096.59;4909241;29;20250;-65
2023/05/19 05:17:01;;;;;;;11.10;4.73;;;;;;;9.43;93.34;99096.44;4939275;28;20229;-65
2023/05/19 05:19:32;;;;;;;8.07;4.10;;;;;;;9.53;92.42;99095.66;4925984;29;20244;-65
2023/05/19 05:21:59;;;;;;;7.87;3.30;;;;;;;9.74;87.60;99095.56;4939161;29;20310;-65
2023/05/19 05:24:34;;;;;;;8.33;3.40;;;;;;;9.89;87.85;99099.44;4908816;29;20227;-65
2023/05/19 05:27:04;;;;;;;9.50;2.90;;;;;;;10.10;84.50;99095.06;4924337;29;20226;-65
2023/05/19 05:29:32;;;;;;;7.60;3.43;;;;;;;10.33;84.12;99103.47;4941490;29;20230;-65
2023/05/19 05:32:00;;;;;;;9.03;3.73;;;;;;;10.59;81.95;99105.53;4903634;29;20230;-65
2023/05/19 05:34:32;;;;;;;7.57;4.17;;;;;;;10.87;78.65;99109.06;4908521;29;20237;-65
2023/05/19 05:36:58;;;;;;;8.93;3.07;;;;;;;11.12;77.26;99106.81;4906557;29;20221;-65
2023/05/19 05:39:34;;;;;;;9.90;5.30;;;;;;;11.34;75.32;99107.41;4941357;29;20311;-65
2023/05/19 05:42:01;;;;;;;7.07;3.53;;;;;;;11.52;74.45;99110.09;4938421;29;20277;-65
2023/05/19 05:44:34;;;;;;;5.57;2.93;;;;;;;11.61;73.32;99111.84;4909823;29;20261;-65
2023/05/19 05:47:02;;;;;;;6.53;3.03;;;;;;;11.67;73.22;99106.00;4939017;28;20253;-65
2023/05/19 05:49:34;;;;;;;8.13;2.93;;;;;;;11.57;73.51;99105.25;4910178;29;20237;-65
2023/05/19 05:52:02;;;;;;;4.83;2.53;;;;;;;11.79;73.55;99105.78;4925169;29;20655;-65
2023/05/19 05:54:35;;;;;;;6.63;3.10;;;;;;;11.66;73.15;99109.56;4941690;28;20574;-65
2023/05/19 05:57:03;;;;;;;6.57;2.90;;;;;;;11.63;73.33;99103.81;4906197;29;20565;-65
2023/05/19 05:59:32;;;;;;;10.07;3.50;;;;;;;11.70;72.51;99099.66;4909764;29;20229;-65
2023/05/19 06:01:59;;;;;;;6.57;2.90;;;;;;;11.86;72.02;99103.44;4902120;29;20235;-65
2023/05/19 06:04:33;;;;;;;6.77;2.90;;;;;;;11.89;71.84;99103.13;4925354;29;20979;-65
2023/05/19 06:07:02;;;;;;;7.07;3.27;;;;;;;11.84;71.51;99111.41;4938440;29;20573;-65
2023/05/19 06:09:36;;;;;;;6.17;3.37;;;;;;;12.05;71.74;99102.50;4943511;28;20229;-65
2023/05/19 06:12:05;;;;;;;7.57;3.00;;;;;;;12.29;70.85;99101.09;4926140;29;20231;-65
2023/05/19 06:14:37;;;;;;;5.70;3.10;;;;;;;12.43;70.18;99099.72;4913127;29;20313;-65
2023/05/19 06:17:38;;;;;;;5.17;2.63;;;;;;;12.43;69.38;99095.31;4942315;28;20600;-65
2023/05/19 06:20:07;;;;;;;6.70;3.13;;;;;;;12.47;69.71;99095.81;4910378;28;20722;-65
2023/05/19 06:22:34;;;;;;;5.77;3.07;;;;;;;12.56;69.20;99097.53;4944657;28;20241;-65
2023/05/19 06:25:04;;;;;;;8.33;3.27;;;;;;;12.46;69.67;99099.41;4909519;28;20238;-65
2023/05/19 06:27:30;;;;;;;7.40;3.40;;;;;;;12.51;68.00;99103.25;4913252;29;20698;-65
2023/05/19 06:29:57;;;;;;;7.83;3.53;;;;;;;12.50;68.39;99109.47;4941649;28;20223;-65
2023/05/19 06:32:25;;;;;;;7.30;3.03;;;;;;;12.31;68.62;99107.00;4911940;29;20239;-65
2023/05/19 06:34:53;;;;;;;8.03;3.67;;;;;;;12.38;69.46;99105.41;4940579;28;20324;-65
2023/05/19 06:37:21;;;;;;;8.87;3.10;;;;;;;12.35;68.33;99109.16;4944709;28;20233;-65
2023/05/19 06:39:50;;;;;;;5.40;3.07;;;;;;;12.55;67.81;99107.22;4941643;28;20237;-65
2023/05/19 06:42:21;;;;;;;8.53;3.40;;;;;;;12.55;67.64;99114.22;4906335;29;20265;-65
2023/05/19 06:45:11;;;;;;;8.40;3.23;;;;;;;12.67;67.69;99115.63;4907449;28;20309;-65
2023/05/19 06:47:39;;;;;;;6.87;2.80;;;;;;;12.76;67.81;99111.25;4929039;29;20297;-66
2023/05/19 06:50:06;;;;;;;6.87;3.53;;;;;;;12.84;67.25;99110.50;4909404;28;20748;-66
2023/05/19 06:52:36;;;;;;;8.93;3.13;;;;;;;12.77;67.74;99118.16;4943193;29;20237;-66
2023/05/19 06:55:03;;;;;;;7.67;3.37;;;;;;;12.59;68.82;99114.75;4903590;29;20227;-66
2023/05/19 06:57:32;;;;;;;5.13;3.33;;;;;;;12.74;67.87;99115.03;4930403;29;20833;-66
2023/05/19 07:00:00;;;;;;;9.57;3.20;;;;;;;12.85;68.57;99110.34;4925313;28;20309;-65
2023/05/19 07:02:27;;;;;;;5.03;3.00;;;;;;;12.92;67.72;99109.72;4922460;29;20263;-67
2023/05/19 07:04:54;;;;;;;6.33;3.47;;;;;;;12.96;68.17;99111.06;4919108;28;20441;-66
2023/05/19 07:07:22;;;;;;;8.73;3.13;;;;;;;13.12;68.59;99108.56;4942481;28;20279;-66
2023/05/19 07:09:49;;;;;;;8.80;3.67;;;;;;;13.09;67.74;99105.44;4938601;28;20236;-66
2023/05/19 07:12:16;;;;;;;9.43;2.93;;;;;;;13.17;68.36;99102.03;4908975;29;20228;-66
2023/05/19 07:14:43;;;;;;;6.37;3.53;;;;;;;13.16;66.80;99097.75;4943101;28;20223;-66
2023/05/19 07:17:11;;;;;;;6.77;2.80;;;;;;;13.40;66.92;99097.88;4924283;29;20836;-67
2023/05/19 07:19:42;;;;;;;10.17;3.13;;;;;;;13.45;67.30;99101.88;4910299;29;20725;-67
2023/05/19 07:22:09;;;;;;;7.70;3.60;;;;;;;13.58;66.41;99097.81;4907002;29;20245;-67
2023/05/19 07:24:36;;;;;;;5.60;2.83;;;;;;;13.65;66.00;99099.78;4942496;29;20231;-66
2023/05/19 07:27:02;;;;;;;8.20;2.73;;;;;;;13.63;66.11;99088.63;4924944;29;20235;-66
2023/05/19 07:29:32;;;;;;;6.97;3.00;;;;;;;13.83;64.92;99089.19;4928334;29;20998;-66
2023/05/19 07:32:03;;;;;;;9.90;3.60;;;;;;;13.76;65.82;99085.56;4924260;29;20713;-66
2023/05/19 07:34:32;;;;;;;10.90;4.50;;;;;;;14.05;64.68;99089.56;4927994;29;20302;-67
2023/05/19 07:36:59;;;;;;;5.97;3.10;;;;;;;14.22;63.41;99077.28;4924886;28;20231;-67
2023/05/19 07:39:33;;;;;;;6.90;3.10;;;;;;;14.21;63.44;99079.06;4928131;29;20231;-67
2023/05/19 07:42:00;;;;;;;8.30;3.00;;;;;;;14.41;61.18;99078.75;4925731;29;21039;-67
2023/05/19 07:44:33;;;;;;;8.20;3.30;;;;;;;14.58;62.60;99071.69;4927241;29;20245;-67
2023/05/19 07:47:00;;;;;;;7.13;3.23;;;;;;;14.65;61.30;99072.66;4925054;29;20248;-67
2023/05/19 07:49:34;;;;;;;9.27;3.07;;;;;;;14.72;61.07;99075.47;4928156;29;20255;-67
2023/05/19 07:52:01;;;;;;;9.10;2.80;;;;;;;15.00;62.12;99075.91;4908603;29;20779;-67
2023/05/19 07:54:32;;;;;;;7.03;2.80;;;;;;;15.16;62.30;99071.59;4927547;29;20640;-67
2023/05/19 07:56:58;;;;;;;5.60;3.00;;;;;;;14.81;61.72;99077.13;4925294;28;20239;-67
2023/05/19 07:59:50;;;;;;;10.07;2.77;;;;;;;14.75;61.86;99069.91;4925127;28;20236;-67
2023/05/19 08:02:16;;;;;;;9.73;3.33;;;;;;;14.66;61.93;99081.38;4926304;29;20241;-66
2023/05/19 08:04:44;;;;;;;6.73;2.60;;;;;;;14.97;63.74;99070.16;4927306;29;20233;-66
2023/05/19 08:07:11;;;;;;;5.93;2.90;;;;;;;15.42;63.30;99068.69;4924869;29;20785;-67
2023/05/19 08:09:37;;;;;;;6.37;3.00;;;;;;;15.75;59.80;99076.44;4911258;29;20245;-67
2023/05/19 08:12:04;;;;;;;8.90;3.03;;;;;;;15.83;60.29;99077.38;4924089;29;20292;-66
2023/05/19 08:14:33;;;;;;;5.23;2.30;;;;;;;15.78;55.55;99070.81;4927010;29;20239;-66
2023/05/19 08:17:00;;;;;;;6.17;2.50;;;;;;;15.86;55.55;99064.66;4925930;29;20576;-66
2023/05/19 08:19:32;;;;;;;5.47;2.67;;;;;;;16.12;55.90;99067.97;4927103;29;20734;-66
2023/05/19 08:22:00;;;;;;;3.87;2.10;;;;;;;15.73;53.31;99060.00;4923595;29;20570;-67
2023/05/19 08:24:32;;;;;;;5.37;2.53;;;;;;;15.85;53.60;99062.22;4926679;29;20320;-67
2023/05/19 08:26:59;;;;;;;3.53;2.33;;;;;;;15.86;51.95;99062.03;4924063;29;20243;-64
2023/05/19 08:29:32;;;;;;;10.20;2.70;;;;;;;16.12;52.92;99062.72;4927158;29;20593;-64
2023/05/19 08:31:59;;;;;;;6.10;2.23;;;;;;;15.84;54.46;99060.59;4923222;29;20288;-63
2023/05/19 08:34:32;;;;;;;4.07;2.00;;;;;;;16.03;53.52;99064.59;4926758;29;20232;-63
2023/05/19 08:37:00;;;;;;;6.27;2.20;;;;;;;16.46;54.79;99064.91;4923723;29;20241;-63
2023/05/19 08:39:33;;;;;;;7.73;2.30;;;;;;;16.87;53.04;99070.78;4926576;29;20234;-63
2023/05/19 08:42:00;;;;;;;6.27;2.27;;;;;;;17.24;51.61;99069.09;4923585;29;20235;-63
2023/05/19 08:44:32;;;;;;;4.23;2.20;;;;;;;17.25;49.59;99068.09;4926401;29;20235;-64
2023/05/19 08:47:02;;;;;;;3.57;2.00;;;;;;;16.60;51.01;99062.47;4924037;29;20231;-64
2023/05/19 08:49:35;;;;;;;4.90;1.90;;;;;;;17.00;50.05;99072.81;4926424;29;20289;-64
2023/05/19 08:52:15;;;;;;;7.90;2.30;;;;;;;16.18;49.98;99069.91;4923123;29;20258;-64
2023/05/19 08:54:47;;;;;;;4.70;2.27;;;;;;;16.36;50.84;99069.63;4916115;29;20242;-59
2023/05/19 08:57:14;;;;;;;2.53;1.90;;;;;;;16.64;50.94;99075.13;4924374;29;20354;-61
2023/05/19 08:59:42;;;;;;;5.30;2.40;;;;;;;16.76;50.79;99064.16;4927022;29;20227;-62
2023/05/19 09:02:12;;;;;;;4.90;2.07;;;;;;;16.94;51.08;99064.63;4923145;29;20253;-62
2023/05/19 09:04:40;;;;;;;6.70;2.20;;;;;;;16.77;49.74;99065.78;4925615;29;20253;-62
2023/05/19 09:07:09;;;;;;;5.47;1.83;;;;;;;16.66;50.62;99062.59;4923164;29;20720;-62
2023/05/19 09:09:36;;;;;;;4.37;1.87;;;;;;;16.65;50.66;99053.03;4926130;29;20248;-62
2023/05/19 09:12:03;;;;;;;5.77;1.80;;;;;;;17.20;49.73;99058.06;4923313;29;20239;-62
2023/05/19 09:14:33;;;;;;;4.87;1.90;;;;;;;16.74;49.03;99048.50;4924991;29;20954;-61
2023/05/19 09:17:01;;;;;;;2.93;1.97;;;;;;;16.80;49.57;99054.88;4922634;29;20257;-61
2023/05/19 09:19:32;;;;;;;3.67;1.70;;;;;;;17.34;48.85;99055.59;4926857;29;20230;-61
2023/05/19 09:22:00;;;;;;;6.30;2.10;;;;;;;17.32;47.70;99058.44;4922963;28;20243;-61
2023/05/19 09:24:36;;;;;;;4.67;1.93;;;;;;;17.43;48.64;99053.69;4926061;29;20805;-61
2023/05/19 09:27:03;;;;;;;4.07;1.63;;;;;;;17.21;48.67;99058.91;4923443;29;20322;-62
2023/05/19 09:29:33;;;;;;;7.80;1.97;;;;;;;17.47;47.04;99053.13;4926508;29;20254;-62
2023/05/19 09:32:03;;;;;;;6.20;1.63;;;;;;;17.06;49.48;99058.91;4923399;29;20346;-62
2023/05/19 09:34:32;;;;;;;6.00;2.07;;;;;;;17.33;47.86;99056.63;4926205;29;20235;-62
2023/05/19 09:36:59;;;;;;;2.33;1.40;;;;;;;17.10;47.35;99058.38;4922259;29;20231;-62
2023/05/19 09:39:32;;;;;;;4.23;1.13;;;;;;;17.54;47.14;99054.03;4925550;29;20313;-62
2023/05/19 09:42:04;;;;;;;2.73;1.40;;;;;;;17.57;46.93;99055.47;4923523;29;20578;-62
2023/05/19 09:44:35;;;;;;;5.23;1.30;;;;;;;17.81;46.49;99056.13;4927585;29;20227;-62
2023/05/19 09:47:02;;;;;;;2.50;1.30;;;;;;;18.26;45.12;99055.97;4927257;29;20741;-62
2023/05/19 09:49:32;;;;;;;3.77;1.90;;;;;;;18.23;45.01;99051.06;4930232;29;20761;-62
2023/05/19 09:52:02;;;;;;;3.00;1.60;;;;;;;18.55;46.85;99056.81;4925963;29;20240;-62
2023/05/19 09:54:34;;;;;;;2.73;1.13;;;;;;;18.16;46.79;99048.38;4929656;29;20231;-60
2023/05/19 09:57:04;;;;;;;2.20;1.30;;;;;;;18.54;43.79;99042.78;4926012;29;20281;-60
2023/05/19 09:59:32;;;;;;;3.33;1.30;;;;;;;18.59;44.68;99042.19;4930061;29;20781;-59
2023/05/19 10:02:00;;;;;;;4.00;1.40;;;;;;;17.62;45.61;99039.09;4926682;29;20638;-60
2023/05/19 10:04:32;;;;;;;3.20;1.63;;;;;;;17.00;48.00;99047.28;4928243;29;20231;-60
2023/05/19 10:06:59;;;;;;;4.47;1.30;;;;;;;17.03;47.82;99046.06;4926530;29;20239;-60
2023/05/19 10:09:33;;;;;;;4.97;1.50;;;;;;;17.20;48.18;99042.25;4928750;29;20259;-60
2023/05/19 10:12:03;;;;;;;3.10;1.17;;;;;;;17.37;46.51;99039.41;4927186;29;20634;-60
2023/05/19 10:14:32;;;;;;;5.20;1.60;;;;;;;16.91;46.64;99043.91;4929963;29;20832;-60
2023/05/19 10:16:59;;;;;;;2.47;1.17;;;;;;;17.13;46.52;99043.97;4926798;29;20231;-60
2023/05/19 10:19:33;;;;;;;3.77;1.20;;;;;;;17.13;49.56;99036.06;4929615;29;20231;-60
2023/05/19 10:22:00;;;;;;;3.83;1.20;;;;;;;17.53;47.30;99047.13;4924123;29;20227;-61
2023/05/19 10:24:32;;;;;;;2.07;1.20;;;;;;;17.59;45.47;99034.97;4929599;29;20610;-61
2023/05/19 10:27:05;;;;;;;2.53;1.30;;;;;;;17.09;46.67;99040.91;4926932;29;20611;-61
2023/05/19 10:29:36;;;;;;;3.30;1.03;;;;;;;17.59;46.78;99037.63;4929586;29;20237;-60
2023/05/19 10:32:07;;;;;;;1.97;1.20;;;;;;;17.19;45.01;99035.34;4925909;29;20235;-60
2023/05/19 10:35:15;;;;;;;2.30;1.30;;;;;;;17.49;45.99;99029.22;4906742;29;20236;-61
2023/05/19 10:37:46;;;;;;;4.37;1.40;;;;;;;17.77;46.27;99036.38;4925951;29;20282;-61
2023/05/19 10:40:20;;;;;;;3.20;1.30;;;;;;;18.08;48.64;99035.31;4926708;28;20232;-62
2023/05/19 10:43:00;;;;;;;4.67;1.20;;;;;;;18.19;46.73;99040.06;4929252;29;20236;-58
2023/05/19 10:45:30;;;;;;;2.63;1.43;;;;;;;17.98;44.78;99041.69;4926915;29;20582;-58
2023/05/19 10:47:56;;;;;;;4.40;1.33;;;;;;;17.79;44.90;99047.59;4926455;29;20798;-58
2023/05/19 10:50:23;;;;;;;4.10;1.30;;;;;;;17.49;47.53;99042.41;4928859;28;20287;-58
2023/05/19 10:52:54;;;;;;;4.03;1.33;;;;;;;17.87;45.20;99041.38;4925666;29;20694;-53
2023/05/19 10:55:45;;;;;;;5.73;1.50;;;;;;;17.91;46.88;99040.00;4928630;28;20233;-59
2023/05/19 10:58:13;;;;;;;3.33;1.43;;;;;;;18.33;45.13;99041.00;4909297;29;20315;-59
2023/05/19 11:00:40;;;;;;;3.40;1.53;;;;;;;18.17;43.94;99030.69;4929358;28;20243;-62
2023/05/19 11:03:14;;;;;;;4.60;1.60;;;;;;;18.09;44.00;99029.81;4924789;29;20239;-63
2023/05/19 11:05:41;;;;;;;2.77;1.43;;;;;;;18.41;45.23;99035.56;4929115;28;20236;-63
2023/05/19 11:08:09;;;;;;;4.47;1.60;;;;;;;18.62;43.78;99033.88;4926362;29;20252;-63
2023/05/19 11:10:36;;;;;;;2.00;1.47;;;;;;;17.94;44.59;99042.25;4929435;28;20268;-63
2023/05/19 11:13:04;;;;;;;2.93;1.73;;;;;;;18.40;43.42;99039.22;4926356;29;20239;-63
2023/05/19 11:15:34;;;;;;;3.90;1.80;;;;;;;17.70;44.66;99034.50;4928754;28;20244;-63
2023/05/19 11:18:02;;;;;;;4.70;2.10;;;;;;;17.74;45.70;99036.75;4908708;29;20239;-56
2023/05/19 11:20:30;;;;;;;4.43;1.57;;;;;;;17.60;45.65;99031.34;4929173;29;20712;-64
2023/05/19 11:23:07;;;;;;;6.87;1.47;;;;;;;17.09;47.13;99026.88;4925343;29;20289;-64
2023/05/19 11:25:45;;;;;;;4.40;1.63;;;;;;;17.37;46.56;99020.94;4926063;28;20230;-65
2023/05/19 11:28:15;;;;;;;6.17;1.43;;;;;;;17.63;45.65;99024.88;4925150;29;20218;-65
2023/05/19 11:30:45;;;;;;;5.03;2.50;;;;;;;17.83;46.48;99028.56;4928279;28;20231;-64
2023/05/19 11:33:12;;;;;;;3.83;1.70;;;;;;;18.19;44.65;99021.59;4925117;29;20223;-64
2023/05/19 11:35:39;;;;;;;5.53;2.23;;;;;;;17.64;45.60;99035.25;4927764;28;20258;-64
2023/05/19 11:38:07;;;;;;;2.50;1.53;;;;;;;17.64;45.83;99037.88;4925023;29;20700;-64
2023/05/19 11:40:33;;;;;;;5.47;1.83;;;;;;;17.64;45.43;99027.31;4933120;28;20223;-64
2023/05/19 11:43:01;;;;;;;4.80;1.80;;;;;;;17.84;46.60;99035.47;4925393;29;20230;-64
2023/05/19 11:45:28;;;;;;;3.30;1.70;;;;;;;17.62;45.02;99034.63;4928267;28;20228;-65
2023/05/19 11:47:58;;;;;;;3.37;1.57;;;;;;;16.85;48.02;99039.34;4925376;29;20233;-64